Accueil
METAR-TAF:

METAR-TAF

Aéroports :

Seyresse

Dax, France

latitude: 43-41N, longitude: 001-04W, altitude: 32 m

Observation

Le bulletin a été fait il y a 2 heures et 32 minutes, à 12:00 UTC
Vent 5 kt de est/sud-est, variant entre nord-est et sud
Température 18°C
Humidité 39%
Pression 1017 hPa
Visibilité 10 km ou plus
pas de nuages en-dessous de 1500 mètres et pas de cumulonimbus.

METAR: LFBY 191200Z 11005KT 040V170 CAVOK 18/04 Q1017

Heure: 16:32 (14:32 UTC)

Prévision

Le bulletin a été fait il y a 5 heures et 32 minutes, à 09:00 UTC
Prévision valable du 19 à 10 UTC au 19 à 18 UTC
Vent 5 kt de est
Visibilité 10 km ou plus
pas de nuages en-dessous de 1500 mètres et pas de cumulonimbus.

TAF: LFBY 190900Z 1910/1918 09005KT CAVOK

Observations et prévisions météorologiques de plus de 4000 aéroports (messages METAR et TAF).

Les stations disponibles sont représentées par des disques jaunes et rouges sur la carte.

Passer la souris dessus pour voir le nom de la station.

Cliquer dessus pour voir les observations et prévisions météorologiques.

Pour changer de carte: cliquez sur les boutons verts avec une croix noire pour zoomer, sur le bouton vert avec un tiret pour effectuer un zoom arrière, ou sur les flèches vertes pour les cartes adjacentes.


METAR-TAF: